createdAt,value
2018-04-26T00:00:07.082Z,100843.91
2018-04-26T00:02:35.349Z,100841.40
2018-04-26T00:05:03.644Z,100843.06
2018-04-26T00:07:31.910Z,100846.14
2018-04-26T00:10:00.195Z,100842.71
2018-04-26T00:12:28.455Z,100838.79
2018-04-26T00:14:56.723Z,100838.77
2018-04-26T00:17:25.013Z,100838.80
2018-04-26T00:19:53.277Z,100836.62
2018-04-26T00:22:21.557Z,100832.28
2018-04-26T00:24:49.817Z,100836.63
2018-04-26T00:27:18.098Z,100832.32
2018-04-26T00:29:46.370Z,100837.92
2018-04-26T00:32:14.916Z,100827.94
2018-04-26T00:34:43.182Z,100836.63
2018-04-26T00:37:11.456Z,100830.14
2018-04-26T00:39:39.734Z,100834.89
2018-04-26T00:42:07.998Z,100834.05
2018-04-26T00:44:36.322Z,100830.97
2018-04-26T00:47:04.595Z,100835.34
2018-04-26T00:49:32.869Z,100831.45
2018-04-26T00:52:01.150Z,100833.16
2018-04-26T00:54:29.693Z,100828.41
2018-04-26T00:56:57.967Z,100829.73
2018-04-26T00:59:26.239Z,100829.29
2018-04-26T01:01:54.518Z,100827.09
2018-04-26T01:04:22.786Z,100823.66
2018-04-26T01:06:51.069Z,100822.34
2018-04-26T01:09:19.341Z,100814.57
2018-04-26T01:11:47.625Z,100808.91
2018-04-26T01:14:15.897Z,100810.22
2018-04-26T01:16:44.184Z,100806.77
2018-04-26T01:19:12.457Z,100805.04
2018-04-26T01:21:40.728Z,100811.09
2018-04-26T01:24:09.001Z,100813.27
2018-04-26T01:26:37.358Z,100815.85
2018-04-26T01:29:05.633Z,100807.66
2018-04-26T01:31:33.902Z,100814.13
2018-04-26T01:34:02.191Z,100812.84
2018-04-26T01:36:42.210Z,100811.97
2018-04-26T01:39:10.482Z,100807.65
2018-04-26T01:41:38.754Z,100808.51
2018-04-26T01:44:07.035Z,100810.66
2018-04-26T01:46:35.306Z,100809.81
2018-04-26T01:49:03.590Z,100803.28
2018-04-26T01:51:31.863Z,100809.37
2018-04-26T01:54:00.126Z,100818.45
2018-04-26T01:56:28.403Z,100811.93
2018-04-26T01:58:56.678Z,100820.19
2018-04-26T02:01:24.966Z,100809.80
2018-04-26T02:03:53.237Z,100814.52
2018-04-26T02:06:21.514Z,100815.39
2018-04-26T02:08:49.786Z,100821.44
2018-04-26T02:11:18.070Z,100818.41
2018-04-26T02:13:46.341Z,100824.47
2018-04-26T02:16:14.626Z,100818.00
2018-04-26T02:18:42.894Z,100812.75
2018-04-26T02:21:11.174Z,100819.66
2018-04-26T02:23:39.441Z,100812.34
2018-04-26T02:26:07.713Z,100821.88
2018-04-26T02:28:35.994Z,100824.50
2018-04-26T02:31:04.433Z,100829.26
2018-04-26T02:33:32.710Z,100827.54
2018-04-26T02:36:00.989Z,100834.84
2018-04-26T02:38:29.262Z,100840.95
2018-04-26T02:40:57.538Z,100835.25
2018-04-26T02:43:25.818Z,100837.86
2018-04-26T02:45:54.091Z,100835.66
2018-04-26T02:48:22.758Z,100840.49
2018-04-26T02:50:51.037Z,100832.22
2018-04-26T02:53:19.301Z,100833.09
2018-04-26T02:55:47.579Z,100827.42
2018-04-26T02:58:15.852Z,100824.46
2018-04-26T03:00:44.134Z,100824.94
2018-04-26T03:03:12.406Z,100830.53
2018-04-26T03:05:40.685Z,100828.78
2018-04-26T03:08:08.970Z,100831.40
2018-04-26T03:10:37.254Z,100830.13
2018-04-26T03:13:05.529Z,100833.61
2018-04-26T03:15:33.846Z,100828.84
2018-04-26T03:18:02.122Z,100831.44
2018-04-26T03:20:30.397Z,100832.77
2018-04-26T03:22:58.703Z,100837.51
2018-04-26T03:25:26.985Z,100836.22
2018-04-26T03:27:55.313Z,100838.39
2018-04-26T03:30:23.581Z,100844.88
2018-04-26T03:32:51.862Z,100839.69
2018-04-26T03:35:20.130Z,100847.91
2018-04-26T03:37:48.479Z,100849.22
2018-04-26T03:40:16.735Z,100844.01
2018-04-26T03:42:45.026Z,100845.32
2018-04-26T03:45:13.293Z,100842.73
2018-04-26T03:47:41.578Z,100841.40
2018-04-26T03:50:09.845Z,100844.45
2018-04-26T03:52:38.130Z,100842.27
2018-04-26T03:55:06.407Z,100841.83
2018-04-26T03:57:34.693Z,100845.31
2018-04-26T04:00:14.722Z,100844.86
2018-04-26T04:02:55.030Z,100855.69
2018-04-26T04:05:35.057Z,100856.14
2018-04-26T04:08:03.337Z,100857.44
2018-04-26T04:10:31.609Z,100858.30
2018-04-26T04:12:59.890Z,100856.98
2018-04-26T04:15:28.165Z,100859.14
2018-04-26T04:17:56.454Z,100851.80
2018-04-26T04:20:24.735Z,100858.29
2018-04-26T04:22:53.026Z,100865.23
2018-04-26T04:25:21.316Z,100876.03
2018-04-26T04:27:49.590Z,100869.98
2018-04-26T04:30:17.865Z,100874.75
2018-04-26T04:32:46.144Z,100862.64
2018-04-26T04:35:14.441Z,100852.23
2018-04-26T04:37:42.698Z,100859.59
2018-04-26T04:40:10.971Z,100868.25
2018-04-26T04:42:39.246Z,100860.03
2018-04-26T04:45:07.588Z,100859.17
2018-04-26T04:47:35.853Z,100855.72
2018-04-26T04:50:04.134Z,100868.67
2018-04-26T04:52:32.415Z,100874.33
2018-04-26T04:55:00.694Z,100876.05
2018-04-26T04:57:28.978Z,100877.34
2018-04-26T04:59:57.270Z,100878.66
2018-04-26T05:02:25.549Z,100879.51
2018-04-26T05:04:53.827Z,100884.28
2018-04-26T05:07:22.104Z,100887.75
2018-04-26T05:09:50.368Z,100892.08
2018-04-26T05:12:18.670Z,100894.66
2018-04-26T05:14:46.970Z,100898.99
2018-04-26T05:17:15.261Z,100896.42
2018-04-26T05:19:43.550Z,100902.91
2018-04-26T05:22:11.810Z,100906.38
2018-04-26T05:24:40.081Z,100917.20
2018-04-26T05:27:08.374Z,100915.91
2018-04-26T05:29:36.646Z,100920.27
2018-04-26T05:32:04.908Z,100919.41
2018-04-26T05:34:33.186Z,100919.83
2018-04-26T05:37:01.454Z,100924.16
2018-04-26T05:39:29.729Z,100926.31
2018-04-26T05:41:58.011Z,100930.64
2018-04-26T05:44:26.301Z,100931.48
2018-04-26T05:46:54.557Z,100938.86
2018-04-26T05:49:22.843Z,100934.97
2018-04-26T05:51:51.113Z,100941.41
2018-04-26T05:54:19.390Z,100941.41
2018-04-26T05:56:47.670Z,100950.97
2018-04-26T05:59:15.933Z,100962.73
2018-04-26T06:01:44.214Z,100967.05
2018-04-26T06:04:12.493Z,100967.92
2018-04-26T06:06:40.773Z,100967.92
2018-04-26T06:09:09.067Z,100965.33
2018-04-26T06:11:37.349Z,100967.08
2018-04-26T06:14:05.627Z,100975.72
2018-04-26T06:16:33.910Z,100973.13
2018-04-26T06:19:02.201Z,100973.12
2018-04-26T06:21:30.490Z,100979.61
2018-04-26T06:23:58.782Z,100983.09
2018-04-26T06:26:27.058Z,100986.09
2018-04-26T06:28:55.365Z,100978.30
2018-04-26T06:31:23.616Z,100983.50
2018-04-26T06:33:51.890Z,100984.33
2018-04-26T06:36:20.163Z,100989.53
2018-04-26T06:38:48.441Z,100987.81
2018-04-26T06:41:16.717Z,100990.41
2018-04-26T06:43:45.016Z,100994.31
2018-04-26T06:46:13.283Z,100999.95
2018-04-26T06:48:41.577Z,100996.09
2018-04-26T06:51:09.845Z,100996.05
2018-04-26T06:53:38.153Z,101002.13
2018-04-26T06:56:06.449Z,101001.94
2018-04-26T06:58:34.730Z,101005.41
2018-04-26T07:01:03.031Z,101003.27
2018-04-26T07:03:31.305Z,101005.52
2018-04-26T07:05:59.594Z,100997.27
2018-04-26T07:08:27.869Z,101004.20
2018-04-26T07:10:56.162Z,101008.50
2018-04-26T07:13:24.450Z,101005.91
2018-04-26T07:15:52.758Z,101003.66
2018-04-26T07:18:21.034Z,101001.95
2018-04-26T07:20:49.323Z,100995.56
2018-04-26T07:23:21.819Z,101008.46
2018-04-26T07:25:50.098Z,101011.91
2018-04-26T07:28:18.370Z,101012.82
2018-04-26T07:30:46.648Z,101001.55
2018-04-26T07:33:14.933Z,101009.80
2018-04-26T07:35:43.230Z,101014.06
2018-04-26T07:38:11.505Z,101014.98
2018-04-26T07:40:39.803Z,101013.63
2018-04-26T07:43:08.148Z,101013.64
2018-04-26T07:45:36.421Z,101016.02
2018-04-26T07:48:04.714Z,101014.39
2018-04-26T07:50:32.990Z,101010.90
2018-04-26T07:53:01.272Z,101011.84
2018-04-26T07:55:29.546Z,101018.38
2018-04-26T07:57:57.832Z,101015.70
2018-04-26T08:00:26.114Z,101022.18
2018-04-26T08:02:54.381Z,101020.95
2018-04-26T08:05:22.658Z,101020.14
2018-04-26T08:07:50.936Z,101017.55
2018-04-26T08:10:19.246Z,101022.33
2018-04-26T08:13:01.776Z,101024.45
2018-04-26T08:15:30.042Z,101024.84
2018-04-26T08:17:59.168Z,101026.88
2018-04-26T08:20:27.450Z,101034.77
2018-04-26T08:22:55.723Z,101044.20
2018-04-26T08:25:24.020Z,101051.67
2018-04-26T08:27:52.294Z,101045.91
2018-04-26T08:30:20.578Z,101051.80
2018-04-26T08:32:48.858Z,101040.47
2018-04-26T08:35:17.154Z,101048.44
2018-04-26T08:37:45.422Z,101047.13
2018-04-26T08:40:13.693Z,101046.98
2018-04-26T08:42:41.973Z,101045.49
2018-04-26T08:45:10.258Z,101061.97
2018-04-26T08:47:38.554Z,101063.52
2018-04-26T08:50:06.861Z,101065.32
2018-04-26T08:52:35.144Z,101067.81
2018-04-26T08:55:03.426Z,101075.13
2018-04-26T08:57:31.701Z,101070.86
2018-04-26T08:59:59.965Z,101068.42
2018-04-26T09:02:28.289Z,101080.04
2018-04-26T09:04:56.549Z,101068.24
2018-04-26T09:07:24.931Z,101085.35
2018-04-26T09:09:53.228Z,101077.55
2018-04-26T09:12:21.485Z,101079.73
2018-04-26T09:14:49.782Z,101089.02
2018-04-26T09:17:18.057Z,101084.80
2018-04-26T09:19:46.334Z,101087.69
2018-04-26T09:22:14.601Z,101084.44
2018-04-26T09:24:42.885Z,101088.95
2018-04-26T09:27:11.194Z,101084.80
2018-04-26T09:29:39.489Z,101077.54
2018-04-26T09:32:07.762Z,101095.44
2018-04-26T09:34:36.043Z,101087.66
2018-04-26T09:37:04.306Z,101089.92
2018-04-26T09:39:32.598Z,101099.08
2018-04-26T09:42:00.871Z,101099.00
2018-04-26T09:44:29.157Z,101103.86
2018-04-26T09:46:57.434Z,101091.30
2018-04-26T09:49:25.724Z,101096.28
2018-04-26T09:51:53.993Z,101089.59
2018-04-26T09:54:22.261Z,101092.41
2018-04-26T09:56:50.542Z,101097.11
2018-04-26T09:59:18.806Z,101097.47
2018-04-26T10:01:47.120Z,101103.00
2018-04-26T10:04:15.362Z,101099.42
2018-04-26T10:06:49.191Z,101097.93
2018-04-26T10:09:17.498Z,101101.13
2018-04-26T10:11:45.791Z,101091.06
2018-04-26T10:14:14.069Z,101094.72
2018-04-26T10:16:42.379Z,101100.36
2018-04-26T10:19:10.673Z,101098.59
2018-04-26T10:21:38.932Z,101110.94
2018-04-26T10:24:07.209Z,101117.20
2018-04-26T10:26:35.479Z,101114.42
2018-04-26T10:29:03.762Z,101100.77
2018-04-26T10:31:32.037Z,101107.18
2018-04-26T10:34:00.318Z,101104.22
2018-04-26T10:36:28.612Z,101096.74
2018-04-26T10:38:56.934Z,101092.48
2018-04-26T10:41:25.201Z,101079.47
2018-04-26T10:43:53.483Z,101082.93
2018-04-26T10:46:21.757Z,101073.12
2018-04-26T10:48:52.021Z,101081.72
2018-04-26T10:51:20.297Z,101073.75
2018-04-26T10:53:48.574Z,101093.41
2018-04-26T10:56:16.849Z,101096.48
2018-04-26T10:58:45.120Z,101099.21
2018-04-26T11:01:13.402Z,101098.30
2018-04-26T11:03:41.673Z,101095.33
2018-04-26T11:06:09.953Z,101099.72
2018-04-26T11:08:38.226Z,101080.20
2018-04-26T11:11:06.507Z,101095.73
2018-04-26T11:13:34.783Z,101084.94
2018-04-26T11:16:03.057Z,101089.04
2018-04-26T11:18:31.357Z,101091.46
2018-04-26T11:20:59.674Z,101095.59
2018-04-26T11:23:27.941Z,101097.71
2018-04-26T11:25:56.253Z,101092.58
2018-04-26T11:28:24.529Z,101087.38
2018-04-26T11:30:52.874Z,101091.50
2018-04-26T11:33:21.110Z,101094.72
2018-04-26T11:35:49.382Z,101090.81
2018-04-26T11:38:17.662Z,101085.67
2018-04-26T11:40:45.934Z,101088.95
2018-04-26T11:43:14.209Z,101084.17
2018-04-26T11:45:42.489Z,101093.72
2018-04-26T11:48:10.758Z,101084.19
2018-04-26T11:50:39.037Z,101082.42
2018-04-26T11:53:07.314Z,101085.61
2018-04-26T11:55:35.587Z,101075.87
2018-04-26T11:58:03.865Z,101083.37
2018-04-26T12:00:32.130Z,101085.92
2018-04-26T12:03:00.405Z,101091.37
2018-04-26T12:05:28.682Z,101083.77
2018-04-26T12:07:56.977Z,101088.37
2018-04-26T12:10:25.246Z,101092.14
2018-04-26T12:12:53.515Z,101091.87
2018-04-26T12:15:21.787Z,101080.50
2018-04-26T12:17:50.194Z,101073.78
2018-04-26T12:20:18.475Z,101083.42
2018-04-26T12:22:46.741Z,101077.94
2018-04-26T12:25:15.021Z,101076.08
2018-04-26T12:27:43.294Z,101074.68
2018-04-26T12:30:11.576Z,101071.41
2018-04-26T12:32:39.842Z,101072.42
2018-04-26T12:35:08.202Z,101071.13
2018-04-26T12:37:36.395Z,101071.47
2018-04-26T12:40:04.668Z,101076.15
2018-04-26T12:42:32.950Z,101085.25
2018-04-26T12:45:01.242Z,101084.87
2018-04-26T12:47:29.511Z,101085.32
2018-04-26T12:49:57.781Z,101084.50
2018-04-26T12:52:26.063Z,101082.66
2018-04-26T12:54:54.330Z,101073.55
2018-04-26T12:57:22.610Z,101086.31
2018-04-26T12:59:50.893Z,101078.07
2018-04-26T13:02:19.179Z,101074.63
2018-04-26T13:04:47.537Z,101066.28
2018-04-26T13:07:15.903Z,101075.88
2018-04-26T13:09:44.188Z,101068.57
2018-04-26T13:12:12.465Z,101079.34
2018-04-26T13:14:40.753Z,101067.30
2018-04-26T13:17:09.049Z,101070.04
2018-04-26T13:19:37.318Z,101056.89
2018-04-26T13:22:05.593Z,101058.59
2018-04-26T13:24:33.870Z,101047.36
2018-04-26T13:27:02.167Z,101054.45
2018-04-26T13:29:30.422Z,101053.34
2018-04-26T13:31:58.693Z,101052.07
2018-04-26T13:34:26.975Z,101044.55
2018-04-26T13:36:55.246Z,101035.20
2018-04-26T13:39:23.518Z,101039.52
2018-04-26T13:41:51.786Z,101045.31
2018-04-26T13:44:20.066Z,101035.62
2018-04-26T13:46:51.882Z,101046.05
2018-04-26T13:49:20.162Z,101049.48
2018-04-26T13:51:48.429Z,101046.56
2018-04-26T13:54:16.718Z,101048.87
2018-04-26T13:56:44.994Z,101051.23
2018-04-26T13:59:13.281Z,101046.73
2018-04-26T14:01:41.555Z,101049.68
2018-04-26T14:04:09.832Z,101056.58
2018-04-26T14:06:38.097Z,101052.83
2018-04-26T14:09:06.385Z,101050.56
2018-04-26T14:11:34.657Z,101054.13
2018-04-26T14:14:02.917Z,101054.25
2018-04-26T14:16:31.197Z,101053.56
2018-04-26T14:18:59.462Z,101056.12
2018-04-26T14:21:27.748Z,101053.77
2018-04-26T14:23:56.026Z,101053.37
2018-04-26T14:26:24.315Z,101042.09
2018-04-26T14:28:52.589Z,101037.18
2018-04-26T14:31:20.883Z,101037.81
2018-04-26T14:33:49.151Z,101044.36
2018-04-26T14:36:17.438Z,101036.66
2018-04-26T14:38:45.715Z,101049.38
2018-04-26T14:41:13.993Z,101047.38
2018-04-26T14:43:42.287Z,101047.80
2018-04-26T14:46:10.597Z,101043.27
2018-04-26T14:48:39.826Z,101043.06
2018-04-26T14:51:08.105Z,101053.27
2018-04-26T14:53:36.391Z,101052.83
2018-04-26T14:56:04.662Z,101053.31
2018-04-26T14:58:32.949Z,101060.58
2018-04-26T15:01:01.242Z,101058.80
2018-04-26T15:03:29.523Z,101068.22
2018-04-26T15:05:57.800Z,101062.95
2018-04-26T15:08:26.074Z,101061.74
2018-04-26T15:10:54.355Z,101058.87
2018-04-26T15:13:22.630Z,101057.55
2018-04-26T15:15:50.903Z,101053.68
2018-04-26T15:18:19.194Z,101048.16
2018-04-26T15:20:47.466Z,101044.75
2018-04-26T15:23:15.745Z,101035.03
2018-04-26T15:25:44.030Z,101030.62
2018-04-26T15:28:12.295Z,101026.95
2018-04-26T15:30:40.579Z,101025.70
2018-04-26T15:33:08.854Z,101020.13
2018-04-26T15:35:37.130Z,101014.05
2018-04-26T15:38:05.406Z,101021.65
2018-04-26T15:40:33.683Z,101035.20
2018-04-26T15:43:01.950Z,101017.26
2018-04-26T15:45:30.238Z,101022.81
2018-04-26T15:47:58.510Z,101029.13
2018-04-26T15:53:54.301Z,101028.35
2018-04-26T15:56:34.409Z,101023.17
2018-04-26T15:59:14.566Z,101025.95
2018-04-26T16:02:18.938Z,101026.52
2018-04-26T16:08:21.505Z,101023.91
2018-04-26T16:11:07.373Z,101020.90
2018-04-26T16:13:52.997Z,101024.03
2018-04-26T16:16:38.664Z,101020.16
2018-04-26T16:19:24.526Z,101026.59
2018-04-26T16:22:10.265Z,101038.22
2018-04-26T16:24:54.773Z,101034.55
2018-04-26T16:27:40.494Z,101030.85
2018-04-26T16:30:20.505Z,101038.55
2018-04-26T16:33:06.609Z,101039.24
2018-04-26T16:35:47.153Z,101038.92
2018-04-26T16:38:28.282Z,101033.89
2018-04-26T16:40:56.554Z,101033.09
2018-04-26T16:43:32.985Z,101025.72
2018-04-26T16:46:01.292Z,101031.98
2018-04-26T16:48:29.567Z,101038.88
2018-04-26T16:50:57.843Z,101032.47
2018-04-26T16:53:26.333Z,101039.17
2018-04-26T16:55:54.601Z,101025.92
2018-04-26T16:58:44.382Z,101033.33
2018-04-26T17:01:12.651Z,101033.17
2018-04-26T17:03:40.934Z,101024.19
2018-04-26T17:06:09.206Z,101028.59
2018-04-26T17:08:37.469Z,101020.20
2018-04-26T17:11:05.746Z,101028.22
2018-04-26T17:13:34.042Z,101028.27
2018-04-26T17:16:02.317Z,101030.72
2018-04-26T17:18:30.585Z,101036.17
2018-04-26T17:20:58.880Z,101030.64
2018-04-26T17:23:27.184Z,101034.23
2018-04-26T17:25:55.481Z,101033.52
2018-04-26T17:28:38.141Z,101017.19
2018-04-26T17:31:06.437Z,101028.87
2018-04-26T17:33:34.706Z,101035.45
2018-04-26T17:36:02.995Z,101040.09
2018-04-26T17:38:31.274Z,101035.05
2018-04-26T17:41:10.341Z,101042.12
2018-04-26T17:43:38.617Z,101044.84
2018-04-26T17:46:06.908Z,101045.17
2018-04-26T17:48:35.268Z,101038.63
2018-04-26T17:51:03.450Z,101039.44
2018-04-26T17:53:31.735Z,101041.38
2018-04-26T17:56:00.002Z,101053.63
2018-04-26T17:58:28.729Z,101051.03
2018-04-26T18:00:56.997Z,101046.99
2018-04-26T18:03:25.276Z,101044.06
2018-04-26T18:05:53.565Z,101058.48
2018-04-26T18:08:21.935Z,101069.94
2018-04-26T18:10:50.217Z,101070.69
2018-04-26T18:13:18.489Z,101064.48
2018-04-26T18:15:46.765Z,101066.81
2018-04-26T18:18:17.060Z,101065.11
2018-04-26T18:20:45.327Z,101060.27
2018-04-26T18:23:13.602Z,101065.65
2018-04-26T18:25:41.878Z,101073.50
2018-04-26T18:28:10.170Z,101076.27
2018-04-26T18:30:43.121Z,101081.49
2018-04-26T18:33:11.417Z,101073.69
2018-04-26T18:35:39.709Z,101069.53
2018-04-26T18:38:07.981Z,101068.05
2018-04-26T18:40:36.250Z,101071.75
2018-04-26T18:43:04.546Z,101069.96
2018-04-26T18:45:32.975Z,101072.73
2018-04-26T18:48:01.207Z,101079.17
2018-04-26T18:50:29.515Z,101086.30
2018-04-26T18:52:57.811Z,101084.30
2018-04-26T18:55:26.117Z,101090.84
2018-04-26T18:57:54.384Z,101101.30
2018-04-26T19:00:22.669Z,101097.20
2018-04-26T19:02:50.966Z,101087.92
2018-04-26T19:05:19.217Z,101087.61
2018-04-26T19:07:47.496Z,101092.52
2018-04-26T19:10:15.770Z,101096.55
2018-04-26T19:12:44.052Z,101090.78
2018-04-26T19:15:12.334Z,101094.86
2018-04-26T19:17:40.602Z,101105.05
2018-04-26T19:20:08.878Z,101094.97
2018-04-26T19:22:37.157Z,101099.25
2018-04-26T19:25:05.431Z,101104.61
2018-04-26T19:27:33.706Z,101114.66
2018-04-26T19:30:01.973Z,101109.94
2018-04-26T19:32:30.257Z,101116.47
2018-04-26T19:34:58.527Z,101115.32
2018-04-26T19:37:26.814Z,101111.74
2018-04-26T19:39:55.158Z,101118.83
2018-04-26T19:42:23.502Z,101117.66
2018-04-26T19:44:51.770Z,101118.92
2018-04-26T19:47:20.047Z,101117.66
2018-04-26T19:49:48.311Z,101115.41
2018-04-26T19:52:16.585Z,101119.33
2018-04-26T19:54:44.853Z,101119.45
2018-04-26T19:57:13.133Z,101117.72
2018-04-26T19:59:41.400Z,101119.97
2018-04-26T20:02:09.671Z,101127.63
2018-04-26T20:04:37.958Z,101121.09
2018-04-26T20:07:06.229Z,101112.45
2018-04-26T20:09:34.513Z,101110.67
2018-04-26T20:12:02.789Z,101112.50
2018-04-26T20:14:31.066Z,101107.33
2018-04-26T20:16:59.530Z,101106.84
2018-04-26T20:19:27.805Z,101113.79
2018-04-26T20:21:56.076Z,101108.63
2018-04-26T20:24:24.353Z,101112.00
2018-04-26T20:26:52.630Z,101112.10
2018-04-26T20:29:20.913Z,101118.19
2018-04-26T20:31:49.181Z,101120.01
2018-04-26T20:34:17.457Z,101116.49
2018-04-26T20:36:45.726Z,101110.03
2018-04-26T20:39:14.005Z,101111.34
2018-04-26T20:41:54.132Z,101112.23
2018-04-26T20:44:34.233Z,101114.36
2018-04-26T20:47:02.493Z,101113.94
2018-04-26T20:49:31.741Z,101115.73
2018-04-26T20:52:00.027Z,101117.91
2018-04-26T20:54:28.286Z,101113.95
2018-04-26T20:56:56.577Z,101118.78
2018-04-26T20:59:24.846Z,101110.07
2018-04-26T21:01:53.118Z,101111.41
2018-04-26T21:04:21.381Z,101112.31
2018-04-26T21:06:49.657Z,101110.59
2018-04-26T21:09:17.928Z,101110.12
2018-04-26T21:11:46.213Z,101110.12
2018-04-26T21:14:14.551Z,101113.59
2018-04-26T21:16:42.762Z,101114.02
2018-04-26T21:19:11.029Z,101110.12
2018-04-26T21:21:39.319Z,101111.41
2018-04-26T21:24:07.634Z,101112.30
2018-04-26T21:26:35.914Z,101107.09
2018-04-26T21:29:04.207Z,101111.01
2018-04-26T21:31:32.478Z,101116.20
2018-04-26T21:34:00.767Z,101112.73
2018-04-26T21:36:29.041Z,101117.08
2018-04-26T21:38:57.326Z,101117.94
2018-04-26T21:41:25.602Z,101117.94
2018-04-26T21:43:53.891Z,101120.95
2018-04-26T21:46:22.157Z,101119.56
2018-04-26T21:48:50.446Z,101120.95
2018-04-26T21:51:24.462Z,101117.95
2018-04-26T21:53:58.361Z,101126.55
2018-04-26T21:56:32.289Z,101118.80
2018-04-26T21:59:06.178Z,101120.93
2018-04-26T22:01:40.007Z,101120.09
2018-04-26T22:04:23.177Z,101117.91
2018-04-26T22:06:51.451Z,101127.44
2018-04-26T22:09:19.724Z,101116.86
2018-04-26T22:11:47.998Z,101114.73
2018-04-26T22:14:16.263Z,101110.84
2018-04-26T22:16:44.545Z,101115.19
2018-04-26T22:19:12.864Z,101114.69
2018-04-26T22:21:41.152Z,101120.80
2018-04-26T22:24:09.425Z,101111.32
2018-04-26T22:26:37.711Z,101116.92
2018-04-26T22:29:05.979Z,101112.56
2018-04-26T22:31:34.254Z,101118.67
2018-04-26T22:34:02.522Z,101118.17
2018-04-26T22:36:30.794Z,101119.09
2018-04-26T22:38:59.069Z,101116.46
2018-04-26T22:41:27.346Z,101113.70
2018-04-26T22:43:55.651Z,101117.14
2018-04-26T22:46:23.937Z,101121.10
2018-04-26T22:48:52.211Z,101122.23
2018-04-26T22:51:20.479Z,101120.19
2018-04-26T22:53:48.773Z,101116.98
2018-04-26T22:56:17.042Z,101121.36
2018-04-26T22:58:45.324Z,101116.27
2018-04-26T23:01:13.590Z,101113.19
2018-04-26T23:03:41.869Z,101115.70
2018-04-26T23:06:10.143Z,101115.78
2018-04-26T23:08:38.418Z,101106.76
2018-04-26T23:11:06.689Z,101110.40
2018-04-26T23:13:34.969Z,101108.00
2018-04-26T23:16:03.244Z,101105.47
2018-04-26T23:18:31.526Z,101108.87
2018-04-26T23:20:59.810Z,101111.45
2018-04-26T23:23:28.090Z,101106.73
2018-04-26T23:25:56.366Z,101109.73
2018-04-26T23:28:24.969Z,101102.41
2018-04-26T23:30:53.241Z,101112.79
2018-04-26T23:33:21.514Z,101111.84
2018-04-26T23:35:49.819Z,101117.08
2018-04-26T23:38:18.070Z,101119.73
2018-04-26T23:40:46.350Z,101123.97
2018-04-26T23:43:14.630Z,101115.24
2018-04-26T23:45:42.914Z,101112.95
2018-04-26T23:48:11.206Z,101117.00
2018-04-26T23:50:39.474Z,101112.08
2018-04-26T23:53:07.757Z,101104.82
2018-04-26T23:55:36.041Z,101108.23
2018-04-26T23:58:04.323Z,101105.42
